sensor_id;sensor_type;location;lat;lon;timestamp;P1;durP1;ratioP1;P2;durP2;ratioP2
32838;SDS011;19182;41.820;12.808;2022-10-15T00:00:46;17.92;;;10.15;;
32838;SDS011;19182;41.820;12.808;2022-10-15T00:03:12;14.07;;;10.02;;
32838;SDS011;19182;41.820;12.808;2022-10-15T00:05:38;20.73;;;10.68;;
32838;SDS011;19182;41.820;12.808;2022-10-15T00:08:05;20.17;;;10.95;;
32838;SDS011;19182;41.820;12.808;2022-10-15T00:10:32;16.23;;;9.88;;
32838;SDS011;19182;41.820;12.808;2022-10-15T00:13:00;15.63;;;10.98;;
32838;SDS011;19182;41.820;12.808;2022-10-15T00:15:27;19.52;;;11.45;;
32838;SDS011;19182;41.820;12.808;2022-10-15T00:17:54;18.05;;;10.52;;
32838;SDS011;19182;41.820;12.808;2022-10-15T00:20:21;18.67;;;10.80;;
32838;SDS011;19182;41.820;12.808;2022-10-15T00:22:47;19.65;;;11.38;;
32838;SDS011;19182;41.820;12.808;2022-10-15T00:25:14;17.35;;;10.95;;
32838;SDS011;19182;41.820;12.808;2022-10-15T00:27:40;20.13;;;11.07;;
32838;SDS011;19182;41.820;12.808;2022-10-15T00:30:07;20.63;;;10.82;;
32838;SDS011;19182;41.820;12.808;2022-10-15T00:32:35;18.70;;;11.82;;
32838;SDS011;19182;41.820;12.808;2022-10-15T00:35:01;20.27;;;12.50;;
32838;SDS011;19182;41.820;12.808;2022-10-15T00:37:27;19.58;;;11.45;;
32838;SDS011;19182;41.820;12.808;2022-10-15T00:39:53;20.42;;;12.13;;
32838;SDS011;19182;41.820;12.808;2022-10-15T00:42:19;19.13;;;11.82;;
32838;SDS011;19182;41.820;12.808;2022-10-15T00:44:57;19.65;;;12.70;;
32838;SDS011;19182;41.820;12.808;2022-10-15T00:47:40;22.75;;;12.82;;
32838;SDS011;19182;41.820;12.808;2022-10-15T00:50:14;22.02;;;13.57;;
32838;SDS011;19182;41.820;12.808;2022-10-15T00:55:32;25.50;;;13.48;;
32838;SDS011;19182;41.820;12.808;2022-10-15T00:58:05;22.40;;;13.93;;
32838;SDS011;19182;41.820;12.808;2022-10-15T01:03:01;21.17;;;12.75;;
32838;SDS011;19182;41.820;12.808;2022-10-15T01:05:28;22.25;;;12.82;;
32838;SDS011;19182;41.820;12.808;2022-10-15T01:07:54;20.95;;;12.65;;
32838;SDS011;19182;41.820;12.808;2022-10-15T01:10:21;22.10;;;13.77;;
32838;SDS011;19182;41.820;12.808;2022-10-15T01:18:31;23.30;;;13.68;;
32838;SDS011;19182;41.820;12.808;2022-10-15T01:27:16;25.38;;;14.07;;
32838;SDS011;19182;41.820;12.808;2022-10-15T01:32:33;23.73;;;13.02;;
32838;SDS011;19182;41.820;12.808;2022-10-15T01:40:43;20.88;;;13.20;;
32838;SDS011;19182;41.820;12.808;2022-10-15T01:43:22;25.52;;;14.30;;
32838;SDS011;19182;41.820;12.808;2022-10-15T01:46:01;24.73;;;13.25;;
32838;SDS011;19182;41.820;12.808;2022-10-15T01:48:30;18.83;;;12.82;;
32838;SDS011;19182;41.820;12.808;2022-10-15T01:51:01;25.20;;;13.23;;
32838;SDS011;19182;41.820;12.808;2022-10-15T01:53:29;19.63;;;13.02;;
32838;SDS011;19182;41.820;12.808;2022-10-15T01:56:03;22.70;;;13.07;;
32838;SDS011;19182;41.820;12.808;2022-10-15T01:58:34;24.75;;;14.75;;
32838;SDS011;19182;41.820;12.808;2022-10-15T02:01:03;24.77;;;13.32;;
32838;SDS011;19182;41.820;12.808;2022-10-15T02:03:30;23.55;;;13.35;;
32838;SDS011;19182;41.820;12.808;2022-10-15T02:06:07;25.80;;;13.93;;
32838;SDS011;19182;41.820;12.808;2022-10-15T02:11:24;23.02;;;13.27;;
32838;SDS011;19182;41.820;12.808;2022-10-15T02:19:11;24.05;;;13.95;;
32838;SDS011;19182;41.820;12.808;2022-10-15T02:22:29;20.85;;;12.38;;
32838;SDS011;19182;41.820;12.808;2022-10-15T02:24:50;24.88;;;13.88;;
32838;SDS011;19182;41.820;12.808;2022-10-15T02:27:20;21.67;;;13.32;;
32838;SDS011;19182;41.820;12.808;2022-10-15T02:29:48;21.42;;;12.13;;
32838;SDS011;19182;41.820;12.808;2022-10-15T02:32:16;22.95;;;12.93;;
32838;SDS011;19182;41.820;12.808;2022-10-15T02:34:44;23.50;;;12.37;;
32838;SDS011;19182;41.820;12.808;2022-10-15T02:37:11;21.48;;;12.82;;
32838;SDS011;19182;41.820;12.808;2022-10-15T02:39:37;22.35;;;13.30;;
32838;SDS011;19182;41.820;12.808;2022-10-15T02:42:03;24.85;;;14.18;;
32838;SDS011;19182;41.820;12.808;2022-10-15T02:44:30;26.55;;;14.95;;
32838;SDS011;19182;41.820;12.808;2022-10-15T02:46:56;23.42;;;13.38;;
32838;SDS011;19182;41.820;12.808;2022-10-15T02:49:24;24.92;;;13.55;;
32838;SDS011;19182;41.820;12.808;2022-10-15T02:51:51;22.67;;;12.43;;
32838;SDS011;19182;41.820;12.808;2022-10-15T02:54:18;23.63;;;14.80;;
32838;SDS011;19182;41.820;12.808;2022-10-15T02:56:44;23.60;;;14.25;;
32838;SDS011;19182;41.820;12.808;2022-10-15T02:59:09;19.50;;;13.57;;
32838;SDS011;19182;41.820;12.808;2022-10-15T03:01:35;19.25;;;11.52;;
32838;SDS011;19182;41.820;12.808;2022-10-15T03:04:01;21.58;;;13.40;;
32838;SDS011;19182;41.820;12.808;2022-10-15T03:06:27;21.80;;;13.32;;
32838;SDS011;19182;41.820;12.808;2022-10-15T03:08:53;22.80;;;13.57;;
32838;SDS011;19182;41.820;12.808;2022-10-15T03:11:19;19.52;;;12.50;;
32838;SDS011;19182;41.820;12.808;2022-10-15T03:13:45;20.83;;;12.82;;
32838;SDS011;19182;41.820;12.808;2022-10-15T03:16:12;21.02;;;11.15;;
32838;SDS011;19182;41.820;12.808;2022-10-15T03:18:38;19.55;;;13.13;;
32838;SDS011;19182;41.820;12.808;2022-10-15T03:21:04;21.83;;;12.70;;
32838;SDS011;19182;41.820;12.808;2022-10-15T03:23:30;19.40;;;11.68;;
32838;SDS011;19182;41.820;12.808;2022-10-15T03:25:56;14.48;;;10.65;;
32838;SDS011;19182;41.820;12.808;2022-10-15T03:28:22;20.00;;;12.70;;
32838;SDS011;19182;41.820;12.808;2022-10-15T03:30:48;21.25;;;13.13;;
32838;SDS011;19182;41.820;12.808;2022-10-15T03:33:14;20.77;;;13.27;;
32838;SDS011;19182;41.820;12.808;2022-10-15T03:35:40;22.05;;;13.00;;
32838;SDS011;19182;41.820;12.808;2022-10-15T03:38:06;21.35;;;13.30;;
32838;SDS011;19182;41.820;12.808;2022-10-15T03:40:33;22.92;;;13.75;;
32838;SDS011;19182;41.820;12.808;2022-10-15T03:43:00;19.63;;;12.88;;
32838;SDS011;19182;41.820;12.808;2022-10-15T03:45:27;19.95;;;12.88;;
32838;SDS011;19182;41.820;12.808;2022-10-15T03:47:54;21.98;;;14.40;;
32838;SDS011;19182;41.820;12.808;2022-10-15T03:50:21;24.83;;;13.77;;
32838;SDS011;19182;41.820;12.808;2022-10-15T03:52:48;21.13;;;13.40;;
32838;SDS011;19182;41.820;12.808;2022-10-15T03:55:14;27.58;;;14.18;;
32838;SDS011;19182;41.820;12.808;2022-10-15T03:57:41;23.00;;;13.07;;
32838;SDS011;19182;41.820;12.808;2022-10-15T04:00:08;26.40;;;14.30;;
32838;SDS011;19182;41.820;12.808;2022-10-15T04:02:36;24.85;;;15.02;;
32838;SDS011;19182;41.820;12.808;2022-10-15T04:05:03;23.25;;;14.52;;
32838;SDS011;19182;41.820;12.808;2022-10-15T04:07:29;23.13;;;13.52;;
32838;SDS011;19182;41.820;12.808;2022-10-15T04:09:54;24.85;;;14.35;;
32838;SDS011;19182;41.820;12.808;2022-10-15T04:12:20;28.58;;;14.75;;
32838;SDS011;19182;41.820;12.808;2022-10-15T04:14:47;21.30;;;12.70;;
32838;SDS011;19182;41.820;12.808;2022-10-15T04:17:12;21.25;;;13.75;;
32838;SDS011;19182;41.820;12.808;2022-10-15T04:19:39;22.73;;;13.73;;
32838;SDS011;19182;41.820;12.808;2022-10-15T04:22:06;23.20;;;13.93;;
32838;SDS011;19182;41.820;12.808;2022-10-15T04:24:33;27.58;;;13.40;;
32838;SDS011;19182;41.820;12.808;2022-10-15T04:26:58;28.20;;;13.27;;
32838;SDS011;19182;41.820;12.808;2022-10-15T04:29:24;26.30;;;13.50;;
32838;SDS011;19182;41.820;12.808;2022-10-15T04:31:50;23.00;;;14.18;;
32838;SDS011;19182;41.820;12.808;2022-10-15T04:34:16;29.15;;;14.55;;
32838;SDS011;19182;41.820;12.808;2022-10-15T04:36:44;26.45;;;14.05;;
32838;SDS011;19182;41.820;12.808;2022-10-15T04:39:10;27.05;;;14.40;;
32838;SDS011;19182;41.820;12.808;2022-10-15T04:41:36;25.88;;;13.57;;
32838;SDS011;19182;41.820;12.808;2022-10-15T04:44:02;25.25;;;14.43;;
32838;SDS011;19182;41.820;12.808;2022-10-15T04:46:28;26.05;;;13.77;;
32838;SDS011;19182;41.820;12.808;2022-10-15T04:48:54;26.30;;;14.68;;
32838;SDS011;19182;41.820;12.808;2022-10-15T04:51:23;22.88;;;13.40;;
32838;SDS011;19182;41.820;12.808;2022-10-15T04:53:50;26.33;;;13.93;;
32838;SDS011;19182;41.820;12.808;2022-10-15T04:56:17;24.17;;;13.98;;
32838;SDS011;19182;41.820;12.808;2022-10-15T04:58:45;28.20;;;14.38;;
32838;SDS011;19182;41.820;12.808;2022-10-15T05:01:13;25.35;;;14.55;;
32838;SDS011;19182;41.820;12.808;2022-10-15T05:03:41;28.83;;;15.50;;
32838;SDS011;19182;41.820;12.808;2022-10-15T05:06:18;24.70;;;14.40;;
32838;SDS011;19182;41.820;12.808;2022-10-15T05:08:45;22.27;;;12.85;;
32838;SDS011;19182;41.820;12.808;2022-10-15T05:11:14;23.83;;;12.82;;
32838;SDS011;19182;41.820;12.808;2022-10-15T05:16:26;21.67;;;14.32;;
32838;SDS011;19182;41.820;12.808;2022-10-15T05:18:55;23.17;;;13.25;;
32838;SDS011;19182;41.820;12.808;2022-10-15T05:21:24;24.65;;;13.02;;
32838;SDS011;19182;41.820;12.808;2022-10-15T05:23:58;18.38;;;12.00;;
32838;SDS011;19182;41.820;12.808;2022-10-15T05:26:26;24.98;;;13.63;;
32838;SDS011;19182;41.820;12.808;2022-10-15T05:28:54;24.10;;;12.85;;
32838;SDS011;19182;41.820;12.808;2022-10-15T05:31:22;21.10;;;12.95;;
32838;SDS011;19182;41.820;12.808;2022-10-15T05:33:50;23.30;;;12.98;;
32838;SDS011;19182;41.820;12.808;2022-10-15T05:36:23;23.27;;;13.82;;
32838;SDS011;19182;41.820;12.808;2022-10-15T05:38:55;20.73;;;11.40;;
32838;SDS011;19182;41.820;12.808;2022-10-15T05:41:23;19.90;;;11.90;;
32838;SDS011;19182;41.820;12.808;2022-10-15T05:43:55;18.85;;;11.73;;
32838;SDS011;19182;41.820;12.808;2022-10-15T05:46:22;19.08;;;11.80;;
32838;SDS011;19182;41.820;12.808;2022-10-15T05:48:49;27.30;;;12.65;;
32838;SDS011;19182;41.820;12.808;2022-10-15T05:51:17;21.00;;;12.77;;
32838;SDS011;19182;41.820;12.808;2022-10-15T05:53:43;22.05;;;12.55;;
32838;SDS011;19182;41.820;12.808;2022-10-15T05:56:16;20.13;;;11.95;;
32838;SDS011;19182;41.820;12.808;2022-10-15T05:58:42;17.58;;;12.18;;
32838;SDS011;19182;41.820;12.808;2022-10-15T06:01:09;18.02;;;11.88;;
32838;SDS011;19182;41.820;12.808;2022-10-15T06:03:37;18.88;;;11.35;;
32838;SDS011;19182;41.820;12.808;2022-10-15T06:06:04;19.00;;;11.40;;
32838;SDS011;19182;41.820;12.808;2022-10-15T06:08:41;20.63;;;11.98;;
32838;SDS011;19182;41.820;12.808;2022-10-15T06:11:07;18.88;;;12.25;;
32838;SDS011;19182;41.820;12.808;2022-10-15T06:13:33;20.80;;;11.40;;
32838;SDS011;19182;41.820;12.808;2022-10-15T06:16:02;19.38;;;11.90;;
32838;SDS011;19182;41.820;12.808;2022-10-15T06:18:31;15.90;;;10.52;;
32838;SDS011;19182;41.820;12.808;2022-10-15T06:20:57;13.93;;;10.25;;
32838;SDS011;19182;41.820;12.808;2022-10-15T06:23:23;12.43;;;8.77;;
32838;SDS011;19182;41.820;12.808;2022-10-15T06:25:49;12.43;;;8.38;;
32838;SDS011;19182;41.820;12.808;2022-10-15T06:28:16;13.38;;;8.23;;
32838;SDS011;19182;41.820;12.808;2022-10-15T06:30:47;11.00;;;7.55;;
32838;SDS011;19182;41.820;12.808;2022-10-15T06:33:19;9.85;;;7.65;;
32838;SDS011;19182;41.820;12.808;2022-10-15T06:35:51;11.25;;;7.10;;
32838;SDS011;19182;41.820;12.808;2022-10-15T06:38:23;8.50;;;6.22;;
32838;SDS011;19182;41.820;12.808;2022-10-15T06:40:49;10.00;;;6.53;;
32838;SDS011;19182;41.820;12.808;2022-10-15T06:43:15;9.23;;;6.25;;
32838;SDS011;19182;41.820;12.808;2022-10-15T06:45:42;10.32;;;6.78;;
32838;SDS011;19182;41.820;12.808;2022-10-15T06:48:09;7.95;;;5.38;;
32838;SDS011;19182;41.820;12.808;2022-10-15T06:50:35;9.65;;;5.45;;
32838;SDS011;19182;41.820;12.808;2022-10-15T06:53:02;11.68;;;5.40;;
32838;SDS011;19182;41.820;12.808;2022-10-15T06:55:29;9.23;;;5.53;;
32838;SDS011;19182;41.820;12.808;2022-10-15T06:57:56;6.38;;;4.80;;
32838;SDS011;19182;41.820;12.808;2022-10-15T07:00:22;11.43;;;4.85;;
32838;SDS011;19182;41.820;12.808;2022-10-15T07:02:49;11.10;;;5.68;;
32838;SDS011;19182;41.820;12.808;2022-10-15T07:05:21;8.55;;;5.07;;
32838;SDS011;19182;41.820;12.808;2022-10-15T07:07:55;10.60;;;5.38;;
32838;SDS011;19182;41.820;12.808;2022-10-15T07:10:22;8.43;;;5.40;;
32838;SDS011;19182;41.820;12.808;2022-10-15T07:12:49;10.15;;;5.22;;
32838;SDS011;19182;41.820;12.808;2022-10-15T07:15:15;6.82;;;4.63;;
32838;SDS011;19182;41.820;12.808;2022-10-15T07:17:52;6.55;;;4.45;;
32838;SDS011;19182;41.820;12.808;2022-10-15T07:20:25;9.07;;;5.53;;
32838;SDS011;19182;41.820;12.808;2022-10-15T07:22:56;8.00;;;5.35;;
32838;SDS011;19182;41.820;12.808;2022-10-15T07:25:24;7.57;;;4.80;;
32838;SDS011;19182;41.820;12.808;2022-10-15T07:27:51;8.30;;;5.60;;
32838;SDS011;19182;41.820;12.808;2022-10-15T07:30:17;7.40;;;5.10;;
32838;SDS011;19182;41.820;12.808;2022-10-15T07:32:44;8.63;;;5.63;;
32838;SDS011;19182;41.820;12.808;2022-10-15T07:35:12;9.40;;;5.25;;
32838;SDS011;19182;41.820;12.808;2022-10-15T07:37:39;12.73;;;6.47;;
32838;SDS011;19182;41.820;12.808;2022-10-15T07:40:05;7.72;;;5.80;;
32838;SDS011;19182;41.820;12.808;2022-10-15T07:42:31;12.20;;;5.88;;
32838;SDS011;19182;41.820;12.808;2022-10-15T07:44:57;6.07;;;4.80;;
32838;SDS011;19182;41.820;12.808;2022-10-15T07:47:25;9.27;;;5.43;;
32838;SDS011;19182;41.820;12.808;2022-10-15T07:49:51;9.85;;;5.93;;
32838;SDS011;19182;41.820;12.808;2022-10-15T07:52:16;7.40;;;5.53;;
32838;SDS011;19182;41.820;12.808;2022-10-15T07:54:42;12.65;;;5.85;;
32838;SDS011;19182;41.820;12.808;2022-10-15T07:57:08;6.68;;;5.47;;
32838;SDS011;19182;41.820;12.808;2022-10-15T07:59:34;10.73;;;5.93;;
32838;SDS011;19182;41.820;12.808;2022-10-15T08:02:00;8.65;;;6.55;;
32838;SDS011;19182;41.820;12.808;2022-10-15T08:04:26;7.10;;;5.35;;
32838;SDS011;19182;41.820;12.808;2022-10-15T08:06:53;7.95;;;6.03;;
32838;SDS011;19182;41.820;12.808;2022-10-15T08:09:19;12.30;;;5.97;;
32838;SDS011;19182;41.820;12.808;2022-10-15T08:11:45;8.20;;;5.68;;
32838;SDS011;19182;41.820;12.808;2022-10-15T08:14:12;7.53;;;5.10;;
32838;SDS011;19182;41.820;12.808;2022-10-15T08:16:38;6.43;;;4.95;;
32838;SDS011;19182;41.820;12.808;2022-10-15T08:19:03;11.13;;;5.60;;
32838;SDS011;19182;41.820;12.808;2022-10-15T08:21:29;9.65;;;7.63;;
32838;SDS011;19182;41.820;12.808;2022-10-15T08:23:55;7.47;;;5.13;;
32838;SDS011;19182;41.820;12.808;2022-10-15T08:26:20;9.18;;;5.88;;
32838;SDS011;19182;41.820;12.808;2022-10-15T08:28:46;9.90;;;5.43;;
32838;SDS011;19182;41.820;12.808;2022-10-15T08:31:12;11.43;;;7.38;;
32838;SDS011;19182;41.820;12.808;2022-10-15T08:33:38;25.05;;;13.80;;
32838;SDS011;19182;41.820;12.808;2022-10-15T08:36:04;28.23;;;17.40;;
32838;SDS011;19182;41.820;12.808;2022-10-15T08:38:32;14.88;;;9.15;;
32838;SDS011;19182;41.820;12.808;2022-10-15T08:40:58;10.20;;;7.00;;
32838;SDS011;19182;41.820;12.808;2022-10-15T08:46:00;9.75;;;6.28;;
32838;SDS011;19182;41.820;12.808;2022-10-15T08:48:35;43.53;;;27.98;;
32838;SDS011;19182;41.820;12.808;2022-10-15T08:51:13;161.13;;;95.78;;
32838;SDS011;19182;41.820;12.808;2022-10-15T08:53:47;55.08;;;34.53;;
32838;SDS011;19182;41.820;12.808;2022-10-15T08:56:17;18.25;;;11.30;;
32838;SDS011;19182;41.820;12.808;2022-10-15T08:58:56;19.00;;;10.38;;
32838;SDS011;19182;41.820;12.808;2022-10-15T09:01:29;10.73;;;6.82;;
32838;SDS011;19182;41.820;12.808;2022-10-15T09:06:48;22.95;;;15.02;;
32838;SDS011;19182;41.820;12.808;2022-10-15T09:14:14;10.88;;;7.20;;
32838;SDS011;19182;41.820;12.808;2022-10-15T09:16:43;12.30;;;8.68;;
32838;SDS011;19182;41.820;12.808;2022-10-15T09:19:15;12.70;;;9.52;;
32838;SDS011;19182;41.820;12.808;2022-10-15T09:21:47;11.88;;;7.82;;
32838;SDS011;19182;41.820;12.808;2022-10-15T09:24:16;11.00;;;7.80;;
32838;SDS011;19182;41.820;12.808;2022-10-15T09:26:53;10.52;;;6.30;;
32838;SDS011;19182;41.820;12.808;2022-10-15T09:29:45;15.52;;;7.90;;
32838;SDS011;19182;41.820;12.808;2022-10-15T09:32:47;9.63;;;7.22;;
32838;SDS011;19182;41.820;12.808;2022-10-15T09:35:45;12.68;;;7.63;;
32838;SDS011;19182;41.820;12.808;2022-10-15T09:44:05;13.63;;;8.32;;
32838;SDS011;19182;41.820;12.808;2022-10-15T09:46:48;11.13;;;6.78;;
32838;SDS011;19182;41.820;12.808;2022-10-15T09:49:16;11.00;;;5.75;;
32838;SDS011;19182;41.820;12.808;2022-10-15T09:54:34;7.30;;;3.47;;
32838;SDS011;19182;41.820;12.808;2022-10-15T09:57:01;3.92;;;3.40;;
32838;SDS011;19182;41.820;12.808;2022-10-15T09:59:32;6.22;;;3.53;;
32838;SDS011;19182;41.820;12.808;2022-10-15T10:04:46;3.40;;;3.08;;
32838;SDS011;19182;41.820;12.808;2022-10-15T10:07:32;4.35;;;3.65;;
32838;SDS011;19182;41.820;12.808;2022-10-15T10:12:49;6.30;;;3.60;;
32838;SDS011;19182;41.820;12.808;2022-10-15T10:15:27;6.00;;;3.35;;
32838;SDS011;19182;41.820;12.808;2022-10-15T10:18:07;8.07;;;4.75;;
32838;SDS011;19182;41.820;12.808;2022-10-15T10:20:53;8.00;;;4.80;;
32838;SDS011;19182;41.820;12.808;2022-10-15T10:23:29;7.47;;;4.30;;
32838;SDS011;19182;41.820;12.808;2022-10-15T10:26:01;9.25;;;4.57;;
32838;SDS011;19182;41.820;12.808;2022-10-15T10:28:49;6.47;;;4.80;;
32838;SDS011;19182;41.820;12.808;2022-10-15T10:31:28;13.23;;;4.82;;
32838;SDS011;19182;41.820;12.808;2022-10-15T10:33:59;4.90;;;3.65;;
32838;SDS011;19182;41.820;12.808;2022-10-15T10:36:29;8.52;;;4.60;;
32838;SDS011;19182;41.820;12.808;2022-10-15T10:44:31;9.40;;;4.95;;
32838;SDS011;19182;41.820;12.808;2022-10-15T10:47:16;8.82;;;4.93;;
32838;SDS011;19182;41.820;12.808;2022-10-15T10:49:52;5.72;;;4.55;;
32838;SDS011;19182;41.820;12.808;2022-10-15T10:55:17;7.28;;;5.05;;
32838;SDS011;19182;41.820;12.808;2022-10-15T11:05:52;7.40;;;4.25;;
32838;SDS011;19182;41.820;12.808;2022-10-15T11:29:57;9.60;;;4.60;;
32838;SDS011;19182;41.820;12.808;2022-10-15T11:46:18;11.43;;;3.50;;
32838;SDS011;19182;41.820;12.808;2022-10-15T11:57:32;9.40;;;3.90;;
32838;SDS011;19182;41.820;12.808;2022-10-15T12:02:49;8.52;;;3.35;;
32838;SDS011;19182;41.820;12.808;2022-10-15T12:05:20;4.93;;;3.20;;
32838;SDS011;19182;41.820;12.808;2022-10-15T12:07:57;8.90;;;2.85;;
32838;SDS011;19182;41.820;12.808;2022-10-15T12:10:37;8.20;;;3.85;;
32838;SDS011;19182;41.820;12.808;2022-10-15T12:18:22;11.25;;;5.38;;
32838;SDS011;19182;41.820;12.808;2022-10-15T12:21:01;6.53;;;4.50;;
32838;SDS011;19182;41.820;12.808;2022-10-15T12:26:02;7.13;;;3.83;;
32838;SDS011;19182;41.820;12.808;2022-10-15T12:28:56;8.18;;;3.92;;
32838;SDS011;19182;41.820;12.808;2022-10-15T12:31:23;7.05;;;3.28;;
32838;SDS011;19182;41.820;12.808;2022-10-15T12:33:51;6.57;;;3.20;;
32838;SDS011;19182;41.820;12.808;2022-10-15T12:41:27;9.27;;;4.25;;
32838;SDS011;19182;41.820;12.808;2022-10-15T12:44:29;7.28;;;3.83;;
32838;SDS011;19182;41.820;12.808;2022-10-15T12:46:57;6.63;;;3.67;;
32838;SDS011;19182;41.820;12.808;2022-10-15T12:51:59;7.55;;;4.20;;
32838;SDS011;19182;41.820;12.808;2022-10-15T12:59:56;6.93;;;3.45;;
32838;SDS011;19182;41.820;12.808;2022-10-15T13:05:11;7.20;;;3.63;;
32838;SDS011;19182;41.820;12.808;2022-10-15T13:07:52;6.65;;;4.05;;
32838;SDS011;19182;41.820;12.808;2022-10-15T13:10:37;7.85;;;3.92;;
32838;SDS011;19182;41.820;12.808;2022-10-15T13:13:24;6.38;;;3.08;;
32838;SDS011;19182;41.820;12.808;2022-10-15T13:15:58;5.60;;;3.38;;
32838;SDS011;19182;41.820;12.808;2022-10-15T13:18:27;5.75;;;3.60;;
32838;SDS011;19182;41.820;12.808;2022-10-15T13:20:55;7.20;;;3.73;;
32838;SDS011;19182;41.820;12.808;2022-10-15T13:23:28;4.57;;;3.35;;
32838;SDS011;19182;41.820;12.808;2022-10-15T13:26:12;8.88;;;3.05;;
32838;SDS011;19182;41.820;12.808;2022-10-15T13:29:04;7.82;;;3.40;;
32838;SDS011;19182;41.820;12.808;2022-10-15T13:31:42;9.30;;;3.20;;
32838;SDS011;19182;41.820;12.808;2022-10-15T13:34:19;3.97;;;2.92;;
32838;SDS011;19182;41.820;12.808;2022-10-15T13:36:50;13.15;;;3.15;;
32838;SDS011;19182;41.820;12.808;2022-10-15T13:39:22;8.35;;;3.88;;
32838;SDS011;19182;41.820;12.808;2022-10-15T13:41:49;7.03;;;2.63;;
32838;SDS011;19182;41.820;12.808;2022-10-15T13:44:22;8.10;;;2.50;;
32838;SDS011;19182;41.820;12.808;2022-10-15T13:46:49;9.00;;;3.55;;
32838;SDS011;19182;41.820;12.808;2022-10-15T13:49:16;9.20;;;3.40;;
32838;SDS011;19182;41.820;12.808;2022-10-15T13:51:43;5.32;;;3.15;;
32838;SDS011;19182;41.820;12.808;2022-10-15T13:54:19;12.07;;;3.53;;
32838;SDS011;19182;41.820;12.808;2022-10-15T13:56:56;6.88;;;3.00;;
32838;SDS011;19182;41.820;12.808;2022-10-15T13:59:25;9.68;;;3.55;;
32838;SDS011;19182;41.820;12.808;2022-10-15T14:02:00;8.40;;;4.03;;
32838;SDS011;19182;41.820;12.808;2022-10-15T14:04:29;6.68;;;4.07;;
32838;SDS011;19182;41.820;12.808;2022-10-15T14:06:59;10.73;;;3.95;;
32838;SDS011;19182;41.820;12.808;2022-10-15T14:09:31;8.50;;;3.40;;
32838;SDS011;19182;41.820;12.808;2022-10-15T14:11:59;7.28;;;3.50;;
32838;SDS011;19182;41.820;12.808;2022-10-15T14:14:30;10.20;;;3.65;;
32838;SDS011;19182;41.820;12.808;2022-10-15T14:17:07;5.60;;;3.40;;
32838;SDS011;19182;41.820;12.808;2022-10-15T14:19:45;11.00;;;3.70;;
32838;SDS011;19182;41.820;12.808;2022-10-15T14:22:19;8.98;;;4.03;;
32838;SDS011;19182;41.820;12.808;2022-10-15T14:24:48;7.72;;;3.95;;
32838;SDS011;19182;41.820;12.808;2022-10-15T14:27:20;18.38;;;4.22;;
32838;SDS011;19182;41.820;12.808;2022-10-15T14:29:51;7.85;;;3.45;;
32838;SDS011;19182;41.820;12.808;2022-10-15T14:32:24;5.72;;;3.25;;
32838;SDS011;19182;41.820;12.808;2022-10-15T14:34:56;5.28;;;3.55;;
32838;SDS011;19182;41.820;12.808;2022-10-15T14:37:36;9.07;;;3.10;;
32838;SDS011;19182;41.820;12.808;2022-10-15T14:40:16;8.27;;;3.13;;
32838;SDS011;19182;41.820;12.808;2022-10-15T14:45:40;7.47;;;3.65;;
32838;SDS011;19182;41.820;12.808;2022-10-15T14:48:22;7.88;;;3.45;;
32838;SDS011;19182;41.820;12.808;2022-10-15T14:50:56;8.65;;;3.53;;
32838;SDS011;19182;41.820;12.808;2022-10-15T14:53:29;7.82;;;3.65;;
32838;SDS011;19182;41.820;12.808;2022-10-15T14:56:01;5.97;;;3.30;;
32838;SDS011;19182;41.820;12.808;2022-10-15T15:01:23;5.18;;;3.35;;
32838;SDS011;19182;41.820;12.808;2022-10-15T15:03:51;6.05;;;3.25;;
32838;SDS011;19182;41.820;12.808;2022-10-15T15:06:21;6.35;;;3.70;;
32838;SDS011;19182;41.820;12.808;2022-10-15T15:08:49;5.55;;;3.35;;
32838;SDS011;19182;41.820;12.808;2022-10-15T15:11:17;9.15;;;4.00;;
32838;SDS011;19182;41.820;12.808;2022-10-15T15:13:46;5.53;;;3.20;;
32838;SDS011;19182;41.820;12.808;2022-10-15T15:16:15;10.82;;;3.28;;
32838;SDS011;19182;41.820;12.808;2022-10-15T15:18:44;9.40;;;3.63;;
32838;SDS011;19182;41.820;12.808;2022-10-15T15:21:13;12.05;;;3.63;;
32838;SDS011;19182;41.820;12.808;2022-10-15T15:23:44;11.30;;;3.67;;
32838;SDS011;19182;41.820;12.808;2022-10-15T15:26:10;4.25;;;3.25;;
32838;SDS011;19182;41.820;12.808;2022-10-15T15:28:36;6.25;;;3.30;;
32838;SDS011;19182;41.820;12.808;2022-10-15T15:31:03;6.20;;;3.38;;
32838;SDS011;19182;41.820;12.808;2022-10-15T15:33:32;8.23;;;3.85;;
32838;SDS011;19182;41.820;12.808;2022-10-15T15:36:05;4.63;;;2.78;;
32838;SDS011;19182;41.820;12.808;2022-10-15T15:38:34;5.68;;;3.40;;
32838;SDS011;19182;41.820;12.808;2022-10-15T15:41:11;7.53;;;3.53;;
32838;SDS011;19182;41.820;12.808;2022-10-15T15:43:40;9.65;;;4.25;;
32838;SDS011;19182;41.820;12.808;2022-10-15T15:46:07;6.32;;;3.75;;
32838;SDS011;19182;41.820;12.808;2022-10-15T15:48:33;7.18;;;4.57;;
32838;SDS011;19182;41.820;12.808;2022-10-15T15:51:05;7.80;;;4.70;;
32838;SDS011;19182;41.820;12.808;2022-10-15T15:53:55;7.10;;;3.67;;
32838;SDS011;19182;41.820;12.808;2022-10-15T15:56:21;8.13;;;4.00;;
32838;SDS011;19182;41.820;12.808;2022-10-15T15:58:47;8.10;;;4.93;;
32838;SDS011;19182;41.820;12.808;2022-10-15T16:01:17;11.90;;;4.75;;
32838;SDS011;19182;41.820;12.808;2022-10-15T16:03:43;10.35;;;5.60;;
32838;SDS011;19182;41.820;12.808;2022-10-15T16:06:10;10.15;;;6.05;;
32838;SDS011;19182;41.820;12.808;2022-10-15T16:08:38;18.70;;;7.73;;
32838;SDS011;19182;41.820;12.808;2022-10-15T16:11:05;19.30;;;10.23;;
32838;SDS011;19182;41.820;12.808;2022-10-15T16:13:31;13.63;;;7.57;;
32838;SDS011;19182;41.820;12.808;2022-10-15T16:15:57;16.95;;;8.88;;
32838;SDS011;19182;41.820;12.808;2022-10-15T16:18:23;28.38;;;14.10;;
32838;SDS011;19182;41.820;12.808;2022-10-15T16:20:49;31.42;;;16.63;;
32838;SDS011;19182;41.820;12.808;2022-10-15T16:23:15;34.72;;;18.42;;
32838;SDS011;19182;41.820;12.808;2022-10-15T16:25:41;41.20;;;19.75;;
32838;SDS011;19182;41.820;12.808;2022-10-15T16:28:07;38.25;;;21.10;;
32838;SDS011;19182;41.820;12.808;2022-10-15T16:30:33;42.00;;;22.42;;
32838;SDS011;19182;41.820;12.808;2022-10-15T16:32:59;30.00;;;17.35;;
32838;SDS011;19182;41.820;12.808;2022-10-15T16:35:25;30.90;;;16.65;;
32838;SDS011;19182;41.820;12.808;2022-10-15T16:37:51;32.35;;;15.55;;
32838;SDS011;19182;41.820;12.808;2022-10-15T16:40:20;33.25;;;16.00;;
32838;SDS011;19182;41.820;12.808;2022-10-15T16:42:46;30.17;;;15.02;;
32838;SDS011;19182;41.820;12.808;2022-10-15T16:45:12;29.70;;;14.00;;
32838;SDS011;19182;41.820;12.808;2022-10-15T16:47:38;26.48;;;13.98;;
32838;SDS011;19182;41.820;12.808;2022-10-15T16:50:04;31.95;;;14.73;;
32838;SDS011;19182;41.820;12.808;2022-10-15T16:52:33;29.90;;;14.35;;
32838;SDS011;19182;41.820;12.808;2022-10-15T16:54:59;30.60;;;14.77;;
32838;SDS011;19182;41.820;12.808;2022-10-15T16:57:25;22.63;;;13.65;;
32838;SDS011;19182;41.820;12.808;2022-10-15T16:59:51;41.47;;;21.77;;
32838;SDS011;19182;41.820;12.808;2022-10-15T17:02:17;61.15;;;27.88;;
32838;SDS011;19182;41.820;12.808;2022-10-15T17:04:43;73.00;;;36.13;;
32838;SDS011;19182;41.820;12.808;2022-10-15T17:07:09;42.95;;;24.23;;
32838;SDS011;19182;41.820;12.808;2022-10-15T17:09:37;32.40;;;18.65;;